LIT weather

Bill & Hillary Clinton National Airport/Adams Field
Little Rock, Arkansas, United States

Public forecast

Using degrees Fahrenheit for public forecast. Weather courtesy of forecast.io.

Current aviation weather report (METAR) for Bill & Hillary Clinton National Airport/Adams Field

Retrieved 2019/11/15 10:53 UTC (53 minutes ago):

KLIT 151053Z 00000KT 10SM CLR 01/M02 A3039 RMK AO2 SLP295 T00061022

Aviation forecast (TAF) for Bill & Hillary Clinton National Airport/Adams Field

Retrieved 2019/11/15 06:45 UTC (5 hours ago):

TAF KLIT 150540Z 1506/1606 VRB05KT P6SM SKC FM151600 01006KT P6SM SKC